createdAt,value
2017-10-23T00:00:04.631Z,14.38
2017-10-23T00:01:42.720Z,14.29
2017-10-23T00:03:20.134Z,13.71
2017-10-23T00:04:57.036Z,13.78
2017-10-23T00:06:34.407Z,13.91
2017-10-23T00:08:11.650Z,14.11
2017-10-23T00:09:48.853Z,14.24
2017-10-23T00:11:25.486Z,13.87
2017-10-23T00:13:02.086Z,13.92
2017-10-23T00:14:38.829Z,13.95
2017-10-23T00:16:15.947Z,14.04
2017-10-23T00:17:53.524Z,13.94
2017-10-23T00:19:34.340Z,13.85
2017-10-23T00:21:14.151Z,14.15
2017-10-23T00:22:51.568Z,14.39
2017-10-23T00:24:28.751Z,14.19
2017-10-23T00:26:07.359Z,14.08
2017-10-23T00:27:43.986Z,14.27
2017-10-23T00:29:21.549Z,14.53
2017-10-23T00:30:58.510Z,14.56
2017-10-23T00:32:36.683Z,14.45
2017-10-23T00:34:13.275Z,14.43
2017-10-23T00:35:50.401Z,14.34
2017-10-23T00:37:27.164Z,14.23
2017-10-23T00:39:03.932Z,14.20
2017-10-23T00:40:40.598Z,13.95
2017-10-23T00:42:17.404Z,14.06
2017-10-23T00:43:54.012Z,14.01
2017-10-23T00:45:31.107Z,14.03
2017-10-23T00:47:08.936Z,14.06
2017-10-23T00:48:46.724Z,13.74
2017-10-23T00:50:23.327Z,13.69
2017-10-23T00:52:00.071Z,13.83
2017-10-23T00:53:37.332Z,13.87
2017-10-23T00:55:15.172Z,13.91
2017-10-23T00:56:52.024Z,13.55
2017-10-23T00:58:28.819Z,13.81
2017-10-23T01:00:06.830Z,13.82
2017-10-23T01:01:44.223Z,13.94
2017-10-23T01:03:21.729Z,14.12
2017-10-23T01:04:58.336Z,13.97
2017-10-23T01:06:35.759Z,14.20
2017-10-23T01:08:12.849Z,14.40
2017-10-23T01:09:49.630Z,14.36
2017-10-23T01:11:26.302Z,14.30
2017-10-23T01:13:02.956Z,14.32
2017-10-23T01:14:40.401Z,14.57
2017-10-23T01:16:17.810Z,14.65
2017-10-23T01:17:54.637Z,14.73
2017-10-23T01:19:31.521Z,14.48
2017-10-23T01:21:08.848Z,14.61
2017-10-23T01:22:45.610Z,14.76
2017-10-23T01:24:22.417Z,14.76
2017-10-23T01:25:59.170Z,14.43
2017-10-23T01:27:36.705Z,14.63
2017-10-23T01:29:13.382Z,14.68
2017-10-23T01:30:55.907Z,14.80
2017-10-23T01:32:36.636Z,14.83
2017-10-23T01:34:18.280Z,14.81
2017-10-23T01:35:55.111Z,14.22
2017-10-23T01:37:36.115Z,13.88
2017-10-23T01:39:15.202Z,14.22
2017-10-23T01:40:56.799Z,14.37
2017-10-23T01:42:43.464Z,14.49
2017-10-23T01:44:28.171Z,14.52
2017-10-23T01:47:45.340Z,14.56
2017-10-23T01:49:25.770Z,14.41
2017-10-23T01:51:08.307Z,13.99
2017-10-23T01:52:50.061Z,13.86
2017-10-23T01:54:26.711Z,13.95
2017-10-23T01:56:03.534Z,14.18
2017-10-23T01:57:40.264Z,14.18
2017-10-23T01:59:18.741Z,14.36
2017-10-23T02:00:56.992Z,14.38
2017-10-23T02:02:35.744Z,14.26
2017-10-23T02:04:12.532Z,14.03
2017-10-23T02:05:50.367Z,14.07
2017-10-23T02:07:27.279Z,13.87
2017-10-23T02:09:05.030Z,13.63
2017-10-23T02:10:41.876Z,13.63
2017-10-23T02:12:18.923Z,13.76
2017-10-23T02:13:55.517Z,13.85
2017-10-23T02:15:32.458Z,13.91
2017-10-23T02:17:09.986Z,13.90
2017-10-23T02:18:46.656Z,13.90
2017-10-23T02:20:23.530Z,13.47
2017-10-23T02:22:00.240Z,13.36
2017-10-23T02:23:38.035Z,13.42
2017-10-23T02:25:14.631Z,13.64
2017-10-23T02:26:52.554Z,13.82
2017-10-23T02:28:29.393Z,13.82
2017-10-23T02:30:06.815Z,13.84
2017-10-23T02:31:44.287Z,13.83
2017-10-23T02:33:21.616Z,13.94
2017-10-23T02:34:58.173Z,13.99
2017-10-23T02:36:35.364Z,13.83
2017-10-23T02:38:11.875Z,13.54
2017-10-23T02:39:49.212Z,13.56
2017-10-23T02:41:25.803Z,13.71
2017-10-23T02:43:02.299Z,13.75
2017-10-23T02:44:39.407Z,13.82
2017-10-23T02:46:22.471Z,13.91
2017-10-23T02:47:59.621Z,13.84
2017-10-23T02:49:36.912Z,13.67
2017-10-23T02:51:15.794Z,13.83
2017-10-23T02:53:00.014Z,13.80
2017-10-23T02:54:41.718Z,13.75
2017-10-23T02:56:24.148Z,13.87
2017-10-23T02:58:08.918Z,13.93
2017-10-23T02:59:50.441Z,13.81
2017-10-23T03:01:32.548Z,13.52
2017-10-23T03:03:13.074Z,13.56
2017-10-23T03:04:57.548Z,13.66
2017-10-23T03:06:42.250Z,13.77
2017-10-23T03:08:24.307Z,13.40
2017-10-23T03:10:01.819Z,13.32
2017-10-23T03:11:42.422Z,13.27
2017-10-23T03:13:19.222Z,13.29
2017-10-23T03:14:56.379Z,13.51
2017-10-23T03:16:34.155Z,13.66
2017-10-23T03:18:11.564Z,13.79
2017-10-23T03:19:48.287Z,13.82
2017-10-23T03:21:26.121Z,13.84
2017-10-23T03:23:03.012Z,13.87
2017-10-23T03:24:39.889Z,14.08
2017-10-23T03:26:16.700Z,14.24
2017-10-23T03:27:53.768Z,14.27
2017-10-23T03:29:30.509Z,14.08
2017-10-23T03:31:07.456Z,13.83
2017-10-23T03:32:44.084Z,13.88
2017-10-23T03:34:21.100Z,13.96
2017-10-23T03:35:57.873Z,14.01
2017-10-23T03:37:36.814Z,14.03
2017-10-23T03:39:13.531Z,14.06
2017-10-23T03:40:56.695Z,13.87
2017-10-23T03:42:33.972Z,14.09
2017-10-23T03:44:11.891Z,14.18
2017-10-23T03:45:50.503Z,14.17
2017-10-23T03:47:27.244Z,14.32
2017-10-23T03:49:03.977Z,14.49
2017-10-23T03:50:41.252Z,14.48
2017-10-23T03:52:18.328Z,14.20
2017-10-23T03:53:55.188Z,14.34
2017-10-23T03:55:32.061Z,14.47
2017-10-23T03:57:09.750Z,14.63
2017-10-23T03:58:46.986Z,14.69
2017-10-23T04:00:28.061Z,14.67
2017-10-23T04:02:04.727Z,14.66
2017-10-23T04:03:42.337Z,14.66
2017-10-23T04:05:19.391Z,14.37
2017-10-23T04:06:56.149Z,14.34
2017-10-23T04:08:32.937Z,14.47
2017-10-23T04:10:10.962Z,14.41
2017-10-23T04:11:48.863Z,14.29
2017-10-23T04:13:25.650Z,14.15
2017-10-23T04:15:02.472Z,14.39
2017-10-23T04:16:40.615Z,14.46
2017-10-23T04:18:18.950Z,14.55
2017-10-23T04:19:55.817Z,14.50
2017-10-23T04:21:32.558Z,14.36
2017-10-23T04:23:10.666Z,14.08
2017-10-23T04:24:47.534Z,14.00
2017-10-23T04:26:24.934Z,14.07
2017-10-23T04:28:01.691Z,13.93
2017-10-23T04:29:38.349Z,13.98
2017-10-23T04:31:15.460Z,14.08
2017-10-23T04:32:52.197Z,14.12
2017-10-23T04:34:29.711Z,14.19
2017-10-23T04:36:07.186Z,14.23
2017-10-23T04:37:44.260Z,14.12
2017-10-23T04:39:21.442Z,14.34
2017-10-23T04:40:58.181Z,14.25
2017-10-23T04:42:36.157Z,14.30
2017-10-23T04:44:13.152Z,14.32
2017-10-23T04:45:51.082Z,14.46
2017-10-23T04:47:27.772Z,14.49
2017-10-23T04:49:04.680Z,14.45
2017-10-23T04:50:42.638Z,14.41
2017-10-23T04:52:19.514Z,14.33
2017-10-23T04:53:56.454Z,14.16
2017-10-23T04:55:33.435Z,14.14
2017-10-23T04:57:10.701Z,13.83
2017-10-23T04:58:48.324Z,13.66
2017-10-23T05:00:27.136Z,14.04
2017-10-23T05:02:04.274Z,14.15
2017-10-23T05:03:42.473Z,14.18
2017-10-23T05:05:19.574Z,14.03
2017-10-23T05:06:56.465Z,13.94
2017-10-23T05:08:34.238Z,13.66
2017-10-23T05:10:12.088Z,13.81
2017-10-23T05:11:49.760Z,14.02
2017-10-23T05:13:26.555Z,14.22
2017-10-23T05:15:03.293Z,14.32
2017-10-23T05:16:41.507Z,14.36
2017-10-23T05:18:18.296Z,14.10
2017-10-23T05:19:55.049Z,13.89
2017-10-23T05:21:34.168Z,14.07
2017-10-23T05:23:11.193Z,14.41
2017-10-23T05:24:48.012Z,14.54
2017-10-23T05:26:26.013Z,14.26
2017-10-23T05:28:02.956Z,14.21
2017-10-23T05:29:40.153Z,14.51
2017-10-23T05:31:17.393Z,14.37
2017-10-23T05:32:54.262Z,14.40
2017-10-23T05:34:31.350Z,14.50
2017-10-23T05:36:09.516Z,14.48
2017-10-23T05:37:46.295Z,14.01
2017-10-23T05:39:23.389Z,13.92
2017-10-23T05:41:00.961Z,14.12
2017-10-23T05:42:39.620Z,14.40
2017-10-23T05:44:16.589Z,14.40
2017-10-23T05:45:53.831Z,14.39
2017-10-23T05:47:30.849Z,14.33
2017-10-23T05:49:08.084Z,14.34
2017-10-23T05:50:45.754Z,13.97
2017-10-23T05:52:22.727Z,13.99
2017-10-23T05:53:59.562Z,14.28
2017-10-23T05:55:37.285Z,14.42
2017-10-23T05:57:14.022Z,14.07
2017-10-23T05:58:52.219Z,14.19
2017-10-23T06:00:30.566Z,14.08
2017-10-23T06:02:08.624Z,13.94
2017-10-23T06:03:45.427Z,14.08
2017-10-23T06:05:22.408Z,14.32
2017-10-23T06:06:59.068Z,14.61
2017-10-23T06:08:36.910Z,14.46
2017-10-23T06:10:13.935Z,13.99
2017-10-23T06:11:51.506Z,14.08
2017-10-23T06:13:29.404Z,14.09
2017-10-23T06:15:07.984Z,13.86
2017-10-23T06:16:45.250Z,13.52
2017-10-23T06:18:22.093Z,13.67
2017-10-23T06:19:59.918Z,13.68
2017-10-23T06:21:36.856Z,13.91
2017-10-23T06:23:13.831Z,14.28
2017-10-23T06:24:50.524Z,14.49
2017-10-23T06:26:27.560Z,14.40
2017-10-23T06:28:04.717Z,14.50
2017-10-23T06:29:41.972Z,14.48
2017-10-23T06:31:18.856Z,13.96
2017-10-23T06:32:56.010Z,13.89
2017-10-23T06:34:34.343Z,14.14
2017-10-23T06:36:11.878Z,14.32
2017-10-23T06:37:48.756Z,14.35
2017-10-23T06:39:25.896Z,14.49
2017-10-23T06:41:03.147Z,14.56
2017-10-23T06:42:40.777Z,14.39
2017-10-23T06:44:18.435Z,14.23
2017-10-23T06:45:55.635Z,14.21
2017-10-23T06:47:32.761Z,13.93
2017-10-23T06:49:11.132Z,13.90
2017-10-23T06:50:47.937Z,13.40
2017-10-23T06:52:25.792Z,13.72
2017-10-23T06:54:03.223Z,14.09
2017-10-23T06:55:40.158Z,14.26
2017-10-23T06:57:17.222Z,14.17
2017-10-23T06:58:54.893Z,13.72
2017-10-23T07:00:32.400Z,13.86
2017-10-23T07:02:10.024Z,13.88
2017-10-23T07:03:46.806Z,14.17
2017-10-23T07:05:23.738Z,14.26
2017-10-23T07:07:00.532Z,14.33
2017-10-23T07:08:37.218Z,14.37
2017-10-23T07:10:14.170Z,14.07
2017-10-23T07:11:51.065Z,14.26
2017-10-23T07:13:28.216Z,13.92
2017-10-23T07:15:05.994Z,14.11
2017-10-23T07:16:43.268Z,14.37
2017-10-23T07:18:19.968Z,14.31
2017-10-23T07:19:57.168Z,14.35
2017-10-23T07:21:34.021Z,14.41
2017-10-23T07:23:12.160Z,14.17
2017-10-23T07:24:48.940Z,13.73
2017-10-23T07:26:26.042Z,13.88
2017-10-23T07:28:02.836Z,13.78
2017-10-23T07:29:39.507Z,14.07
2017-10-23T07:31:17.290Z,14.02
2017-10-23T07:32:54.170Z,13.82
2017-10-23T07:34:30.874Z,13.88
2017-10-23T07:36:08.949Z,14.37
2017-10-23T07:37:45.584Z,14.43
2017-10-23T07:39:22.698Z,14.74
2017-10-23T07:40:59.416Z,14.92
2017-10-23T07:42:36.754Z,14.80
2017-10-23T07:44:13.518Z,14.26
2017-10-23T07:45:50.845Z,14.35
2017-10-23T07:47:27.942Z,14.04
2017-10-23T07:49:04.758Z,14.02
2017-10-23T07:50:42.779Z,14.21
2017-10-23T07:52:19.892Z,14.46
2017-10-23T07:53:56.668Z,14.23
2017-10-23T07:55:33.581Z,14.55
2017-10-23T07:57:10.350Z,14.71
2017-10-23T07:58:47.495Z,14.77
2017-10-23T08:00:26.623Z,14.94
2017-10-23T08:02:03.474Z,15.08
2017-10-23T08:03:40.123Z,15.13
2017-10-23T08:05:17.983Z,15.17
2017-10-23T08:06:55.602Z,15.26
2017-10-23T08:08:32.212Z,15.45
2017-10-23T08:10:10.562Z,15.53
2017-10-23T08:11:47.425Z,15.55
2017-10-23T08:13:24.306Z,15.48
2017-10-23T08:15:00.889Z,15.60
2017-10-23T08:16:37.878Z,15.27
2017-10-23T08:18:14.846Z,14.86
2017-10-23T08:19:51.555Z,15.06
2017-10-23T08:21:28.378Z,15.21
2017-10-23T08:23:05.360Z,15.20
2017-10-23T08:24:42.308Z,15.32
2017-10-23T08:26:18.934Z,15.11
2017-10-23T08:27:55.603Z,15.19
2017-10-23T08:29:33.083Z,15.40
2017-10-23T08:31:11.135Z,15.25
2017-10-23T08:32:47.861Z,15.53
2017-10-23T08:34:25.253Z,15.08
2017-10-23T08:36:02.062Z,15.03
2017-10-23T08:37:39.887Z,14.99
2017-10-23T08:39:16.923Z,15.33
2017-10-23T08:40:53.825Z,15.70
2017-10-23T08:42:30.707Z,15.99
2017-10-23T08:44:09.190Z,16.16
2017-10-23T08:45:46.877Z,16.22
2017-10-23T08:47:24.946Z,16.00
2017-10-23T08:49:01.630Z,15.94
2017-10-23T08:50:38.863Z,15.90
2017-10-23T08:52:16.231Z,16.08
2017-10-23T08:53:53.072Z,16.01
2017-10-23T08:55:30.713Z,15.47
2017-10-23T08:57:14.191Z,15.48
2017-10-23T08:58:51.706Z,15.76
2017-10-23T09:00:31.341Z,15.93
2017-10-23T09:02:09.412Z,15.94
2017-10-23T09:03:47.691Z,15.90
2017-10-23T09:05:25.365Z,16.01
2017-10-23T09:07:02.821Z,16.08
2017-10-23T09:08:40.596Z,15.91
2017-10-23T09:10:19.163Z,16.10
2017-10-23T09:11:55.901Z,16.17
2017-10-23T09:13:32.677Z,16.03
2017-10-23T09:15:10.742Z,16.12
2017-10-23T09:16:48.591Z,16.01
2017-10-23T09:18:27.165Z,15.81
2017-10-23T09:20:04.053Z,15.68
2017-10-23T09:21:41.541Z,15.77
2017-10-23T09:23:18.373Z,15.71
2017-10-23T09:24:55.180Z,15.68
2017-10-23T09:26:32.207Z,15.61
2017-10-23T09:28:08.850Z,15.21
2017-10-23T09:29:46.829Z,15.43
2017-10-23T09:31:23.980Z,15.56
2017-10-23T09:33:00.886Z,15.54
2017-10-23T09:34:38.264Z,15.59
2017-10-23T09:36:15.295Z,15.43
2017-10-23T09:37:51.990Z,15.21
2017-10-23T09:39:28.783Z,15.50
2017-10-23T09:41:06.291Z,15.64
2017-10-23T09:42:44.266Z,15.97
2017-10-23T09:44:20.966Z,16.16
2017-10-23T09:45:58.097Z,16.31
2017-10-23T09:47:35.620Z,16.43
2017-10-23T09:49:12.591Z,16.04
2017-10-23T09:50:49.466Z,15.94
2017-10-23T09:52:26.056Z,15.53
2017-10-23T09:54:03.788Z,15.91
2017-10-23T09:55:40.950Z,16.26
2017-10-23T09:57:17.835Z,16.38
2017-10-23T09:59:00.389Z,16.48
2017-10-23T10:00:37.790Z,16.38
2017-10-23T10:02:15.449Z,16.15
2017-10-23T10:03:52.172Z,15.94
2017-10-23T10:05:30.315Z,15.71
2017-10-23T10:07:08.731Z,15.57
2017-10-23T10:08:45.624Z,15.60
2017-10-23T10:10:22.031Z,15.68
2017-10-23T10:11:58.849Z,15.78
2017-10-23T10:13:35.356Z,15.91
2017-10-23T10:15:12.931Z,15.82
2017-10-23T10:16:52.525Z,16.00
2017-10-23T10:18:29.298Z,15.92
2017-10-23T10:20:05.753Z,15.85
2017-10-23T10:21:43.601Z,16.19
2017-10-23T10:23:20.103Z,16.31
2017-10-23T10:24:57.445Z,16.22
2017-10-23T10:26:33.957Z,16.30
2017-10-23T10:28:12.685Z,16.62
2017-10-23T10:29:49.238Z,16.58
2017-10-23T10:31:26.613Z,16.71
2017-10-23T10:33:04.231Z,16.44
2017-10-23T10:34:40.767Z,16.17
2017-10-23T10:36:17.246Z,16.40
2017-10-23T10:37:54.596Z,16.47
2017-10-23T10:39:31.001Z,16.09
2017-10-23T10:41:08.478Z,15.92
2017-10-23T10:42:45.289Z,16.16
2017-10-23T10:44:21.713Z,16.40
2017-10-23T10:45:58.680Z,16.18
2017-10-23T10:47:35.544Z,16.39
2017-10-23T10:49:12.927Z,16.44
2017-10-23T10:50:49.296Z,16.51
2017-10-23T10:52:26.895Z,16.37
2017-10-23T10:54:03.966Z,16.06
2017-10-23T10:55:40.619Z,16.10
2017-10-23T10:57:17.338Z,16.30
2017-10-23T10:58:54.587Z,16.45
2017-10-23T11:00:31.550Z,16.49
2017-10-23T11:02:09.033Z,16.35
2017-10-23T11:03:46.386Z,16.30
2017-10-23T11:05:23.931Z,16.13
2017-10-23T11:07:00.893Z,15.92
2017-10-23T11:08:38.394Z,16.05
2017-10-23T11:10:15.226Z,16.21
2017-10-23T11:11:51.785Z,16.12
2017-10-23T11:13:28.849Z,15.86
2017-10-23T11:15:07.033Z,16.31
2017-10-23T11:16:44.222Z,16.49
2017-10-23T11:18:21.318Z,16.65
2017-10-23T11:19:58.780Z,16.77
2017-10-23T11:21:35.778Z,16.90
2017-10-23T11:23:12.538Z,16.91
2017-10-23T11:24:49.722Z,17.06
2017-10-23T11:26:27.586Z,17.39
2017-10-23T11:28:05.482Z,17.57
2017-10-23T11:29:45.067Z,17.60
2017-10-23T11:31:22.911Z,17.59
2017-10-23T11:33:01.032Z,17.02
2017-10-23T11:34:38.730Z,16.90
2017-10-23T11:36:15.387Z,16.80
2017-10-23T11:37:52.286Z,16.98
2017-10-23T11:39:29.181Z,17.13
2017-10-23T11:41:07.171Z,17.11
2017-10-23T11:42:44.433Z,17.12
2017-10-23T11:44:29.200Z,17.20
2017-10-23T11:48:06.770Z,16.81
2017-10-23T11:49:43.400Z,16.88
2017-10-23T11:51:20.346Z,16.97
2017-10-23T11:52:56.967Z,17.16
2017-10-23T11:54:34.125Z,17.26
2017-10-23T11:56:11.469Z,17.26
2017-10-23T11:57:48.351Z,17.07
2017-10-23T11:59:26.267Z,16.96
2017-10-23T12:01:03.895Z,16.77
2017-10-23T12:02:41.880Z,17.01
2017-10-23T12:04:18.505Z,16.88
2017-10-23T12:05:56.258Z,16.86
2017-10-23T12:07:33.553Z,16.78
2017-10-23T12:09:11.865Z,16.78
2017-10-23T12:10:48.793Z,16.85
2017-10-23T12:12:25.387Z,16.70
2017-10-23T12:14:02.459Z,16.83
2017-10-23T12:15:40.101Z,16.46
2017-10-23T12:17:18.865Z,16.64
2017-10-23T12:18:55.712Z,16.67
2017-10-23T12:20:32.396Z,16.73
2017-10-23T12:22:09.988Z,16.79
2017-10-23T12:23:47.634Z,16.59
2017-10-23T12:25:25.053Z,16.63
2017-10-23T12:27:01.665Z,16.61
2017-10-23T12:28:39.500Z,16.45
2017-10-23T12:30:18.612Z,16.58
2017-10-23T12:31:55.747Z,16.58
2017-10-23T12:33:32.294Z,16.57
2017-10-23T12:35:09.627Z,16.32
2017-10-23T12:36:46.510Z,16.58
2017-10-23T12:38:23.941Z,16.66
2017-10-23T12:40:00.462Z,16.52
2017-10-23T12:41:38.143Z,16.54
2017-10-23T12:43:15.117Z,16.53
2017-10-23T12:44:51.568Z,16.38
2017-10-23T12:46:34.908Z,16.46
2017-10-23T12:48:11.906Z,16.61
2017-10-23T12:49:49.161Z,16.71
2017-10-23T12:51:26.572Z,16.69
2017-10-23T12:53:03.108Z,16.79
2017-10-23T12:54:39.771Z,17.04
2017-10-23T12:56:16.236Z,17.01
2017-10-23T12:57:52.854Z,17.14
2017-10-23T12:59:30.336Z,17.28
2017-10-23T13:01:07.352Z,17.31
2017-10-23T13:02:44.574Z,17.23
2017-10-23T13:04:21.184Z,17.11
2017-10-23T13:05:58.190Z,17.20
2017-10-23T13:07:34.701Z,17.09
2017-10-23T13:09:11.668Z,17.09
2017-10-23T13:10:48.200Z,17.35
2017-10-23T13:12:24.717Z,17.55
2017-10-23T13:14:01.198Z,17.60
2017-10-23T13:15:39.282Z,17.23
2017-10-23T13:17:16.678Z,17.23
2017-10-23T13:18:53.392Z,17.37
2017-10-23T13:20:30.228Z,17.30
2017-10-23T13:22:08.164Z,17.37
2017-10-23T13:23:46.380Z,17.24
2017-10-23T13:25:22.798Z,17.24
2017-10-23T13:26:59.362Z,17.14
2017-10-23T13:28:37.135Z,17.14
2017-10-23T13:30:15.271Z,17.27
2017-10-23T13:31:52.535Z,17.26
2017-10-23T13:33:29.376Z,17.22
2017-10-23T13:35:06.293Z,17.26
2017-10-23T13:36:43.522Z,17.06
2017-10-23T13:38:20.022Z,17.03
2017-10-23T13:39:57.311Z,17.17
2017-10-23T13:41:34.914Z,17.28
2017-10-23T13:43:12.092Z,17.40
2017-10-23T13:44:49.150Z,17.48
2017-10-23T13:46:25.848Z,17.49
2017-10-23T13:48:03.024Z,17.73
2017-10-23T13:49:40.459Z,17.52
2017-10-23T13:51:17.467Z,17.59
2017-10-23T13:52:54.657Z,17.77
2017-10-23T13:54:32.091Z,17.85
2017-10-23T13:56:08.658Z,17.89
2017-10-23T13:57:45.755Z,17.94
2017-10-23T13:59:22.200Z,17.80
2017-10-23T14:00:59.081Z,17.97
2017-10-23T14:02:36.903Z,17.98
2017-10-23T14:04:13.512Z,17.76
2017-10-23T14:05:51.001Z,17.93
2017-10-23T14:07:29.001Z,17.77
2017-10-23T14:09:06.610Z,17.61
2017-10-23T14:10:43.927Z,17.31
2017-10-23T14:12:20.574Z,17.43
2017-10-23T14:13:57.276Z,17.57
2017-10-23T14:15:33.816Z,17.71
2017-10-23T14:17:10.952Z,17.81
2017-10-23T14:18:48.450Z,17.83
2017-10-23T14:20:26.816Z,17.81
2017-10-23T14:22:03.588Z,17.76
2017-10-23T14:23:40.281Z,17.47
2017-10-23T14:25:16.967Z,17.00
2017-10-23T14:26:53.712Z,17.20
2017-10-23T14:28:31.282Z,17.21
2017-10-23T14:30:08.630Z,17.54
2017-10-23T14:31:45.495Z,17.91
2017-10-23T14:33:22.741Z,17.95
2017-10-23T14:34:59.743Z,17.97
2017-10-23T14:36:36.492Z,17.98
2017-10-23T14:38:13.134Z,17.93
2017-10-23T14:39:50.207Z,17.92
2017-10-23T14:41:26.991Z,17.61
2017-10-23T14:43:04.078Z,17.55
2017-10-23T14:44:42.734Z,17.77
2017-10-23T14:46:20.713Z,17.75
2017-10-23T14:47:57.444Z,17.69
2017-10-23T14:49:34.117Z,17.61
2017-10-23T14:51:11.367Z,17.80
2017-10-23T14:52:49.122Z,17.88
2017-10-23T14:54:25.821Z,17.92
2017-10-23T14:56:03.260Z,18.01
2017-10-23T14:57:42.206Z,18.14
2017-10-23T14:59:19.036Z,17.89
2017-10-23T15:00:55.945Z,17.66
2017-10-23T15:02:32.605Z,17.48
2017-10-23T15:04:10.346Z,17.46
2017-10-23T15:05:47.371Z,17.72
2017-10-23T15:07:25.616Z,17.97
2017-10-23T15:09:02.242Z,18.11
2017-10-23T15:10:42.889Z,18.33
2017-10-23T15:12:19.935Z,18.34
2017-10-23T15:13:58.150Z,18.36
2017-10-23T15:15:34.938Z,18.19
2017-10-23T15:17:12.294Z,18.30
2017-10-23T15:18:51.231Z,18.34
2017-10-23T15:20:27.804Z,17.81
2017-10-23T15:22:04.630Z,17.80
2017-10-23T15:23:42.815Z,17.86
2017-10-23T15:25:19.729Z,17.86
2017-10-23T15:26:57.127Z,18.04
2017-10-23T15:28:34.452Z,18.09
2017-10-23T15:30:11.529Z,18.19
2017-10-23T15:31:49.241Z,18.31
2017-10-23T15:33:25.725Z,18.38
2017-10-23T15:35:02.454Z,18.35
2017-10-23T15:36:39.586Z,18.28
2017-10-23T15:38:16.282Z,17.93
2017-10-23T15:39:52.731Z,17.88
2017-10-23T15:41:30.096Z,18.17
2017-10-23T15:43:06.517Z,18.21
2017-10-23T15:44:43.456Z,17.87
2017-10-23T15:46:21.029Z,17.49
2017-10-23T15:47:57.507Z,17.79
2017-10-23T15:49:33.963Z,17.93
2017-10-23T15:51:10.789Z,17.98
2017-10-23T15:52:47.247Z,18.13
2017-10-23T15:54:25.280Z,18.24
2017-10-23T15:57:52.819Z,18.05
2017-10-23T15:59:31.191Z,18.32
2017-10-23T16:01:07.857Z,18.38
2017-10-23T16:02:44.475Z,18.49
2017-10-23T16:04:21.124Z,18.31
2017-10-23T16:05:57.908Z,18.06
2017-10-23T16:07:34.358Z,17.75
2017-10-23T16:09:11.558Z,17.75
2017-10-23T16:10:48.128Z,17.60
2017-10-23T16:12:24.614Z,17.86
2017-10-23T16:14:01.186Z,17.97
2017-10-23T16:15:38.182Z,18.15
2017-10-23T16:17:16.131Z,18.24
2017-10-23T16:18:52.653Z,17.85
2017-10-23T16:20:29.153Z,17.91
2017-10-23T16:22:05.826Z,18.22
2017-10-23T16:23:43.819Z,18.04
2017-10-23T16:25:20.236Z,18.26
2017-10-23T16:26:56.752Z,18.42
2017-10-23T16:28:34.150Z,18.23
2017-10-23T16:30:10.810Z,18.24
2017-10-23T16:31:47.852Z,18.38
2017-10-23T16:33:24.768Z,18.17
2017-10-23T16:35:02.220Z,17.97
2017-10-23T16:36:38.712Z,18.08
2017-10-23T16:38:15.941Z,18.18
2017-10-23T16:39:52.508Z,18.46
2017-10-23T16:41:29.550Z,18.54
2017-10-23T16:43:06.524Z,18.28
2017-10-23T16:44:43.083Z,18.14
2017-10-23T16:46:19.778Z,18.35
2017-10-23T16:47:56.745Z,18.59
2017-10-23T16:49:33.618Z,18.62
2017-10-23T16:51:10.339Z,18.39
2017-10-23T16:52:47.172Z,18.57
2017-10-23T16:54:24.066Z,18.55
2017-10-23T16:56:00.484Z,18.49
2017-10-23T16:57:37.699Z,18.57
2017-10-23T16:59:14.222Z,18.49
2017-10-23T17:00:51.167Z,18.64
2017-10-23T17:02:27.839Z,18.66
2017-10-23T17:04:04.496Z,18.63
2017-10-23T17:05:41.253Z,18.72
2017-10-23T17:07:18.632Z,18.83
2017-10-23T17:08:56.319Z,18.79
2017-10-23T17:10:33.628Z,18.70
2017-10-23T17:12:16.166Z,18.50
2017-10-23T17:13:53.829Z,18.53
2017-10-23T17:15:31.300Z,18.55
2017-10-23T17:17:09.502Z,18.45
2017-10-23T17:18:46.494Z,18.38
2017-10-23T17:20:24.014Z,18.03
2017-10-23T17:22:01.061Z,17.66
2017-10-23T17:23:39.907Z,17.78
2017-10-23T17:25:18.931Z,17.86
2017-10-23T17:26:57.720Z,17.54
2017-10-23T17:28:36.254Z,17.44
2017-10-23T17:30:15.102Z,17.64
2017-10-23T17:31:54.159Z,17.76
2017-10-23T17:33:32.071Z,17.87
2017-10-23T17:35:09.772Z,17.85
2017-10-23T17:36:47.298Z,17.89
2017-10-23T17:38:24.065Z,17.49
2017-10-23T17:40:02.456Z,17.35
2017-10-23T17:41:42.249Z,17.26
2017-10-23T17:43:19.434Z,17.24
2017-10-23T17:44:57.259Z,17.15
2017-10-23T17:46:38.171Z,17.06
2017-10-23T17:48:16.310Z,17.02
2017-10-23T17:49:54.419Z,17.24
2017-10-23T17:51:33.448Z,17.11
2017-10-23T17:53:11.826Z,17.32
2017-10-23T17:56:23.680Z,17.31
2017-10-23T17:58:01.009Z,17.21
2017-10-23T17:59:39.117Z,17.28
2017-10-23T18:01:15.881Z,17.61
2017-10-23T18:02:54.253Z,17.92
2017-10-23T18:04:31.466Z,18.00
2017-10-23T18:06:10.024Z,17.78
2017-10-23T18:07:48.753Z,17.53
2017-10-23T18:09:27.898Z,17.46
2017-10-23T18:11:05.003Z,17.21
2017-10-23T18:12:43.297Z,17.02
2017-10-23T18:14:21.256Z,16.77
2017-10-23T18:16:01.127Z,16.76
2017-10-23T18:17:38.400Z,16.83
2017-10-23T18:19:16.649Z,16.55
2017-10-23T18:20:57.273Z,16.51
2017-10-23T18:22:35.097Z,16.67
2017-10-23T18:24:12.630Z,16.69
2017-10-23T18:25:49.957Z,16.48
2017-10-23T18:27:27.614Z,16.23
2017-10-23T18:29:06.547Z,16.08
2017-10-23T18:30:45.463Z,16.16
2017-10-23T18:32:23.480Z,16.45
2017-10-23T18:34:03.529Z,16.74
2017-10-23T18:35:44.211Z,17.07
2017-10-23T18:37:24.187Z,16.95
2017-10-23T18:39:03.768Z,16.48
2017-10-23T18:40:44.106Z,16.53
2017-10-23T18:42:21.904Z,16.27
2017-10-23T18:44:00.540Z,16.32
2017-10-23T18:45:39.457Z,16.48
2017-10-23T18:47:18.448Z,16.50
2017-10-23T18:48:59.081Z,16.54
2017-10-23T18:50:38.760Z,16.37
2017-10-23T18:52:17.797Z,16.31
2017-10-23T18:53:56.785Z,16.27
2017-10-23T18:55:36.026Z,16.21
2017-10-23T18:57:19.498Z,16.26
2017-10-23T18:58:59.388Z,16.17
2017-10-23T19:00:39.094Z,16.34
2017-10-23T19:02:17.403Z,16.66
2017-10-23T19:03:56.235Z,16.69
2017-10-23T19:05:35.662Z,16.66
2017-10-23T19:07:15.271Z,16.88
2017-10-23T19:08:55.982Z,17.02
2017-10-23T19:10:34.111Z,17.30
2017-10-23T19:12:14.573Z,17.46
2017-10-23T19:13:53.573Z,17.75
2017-10-23T19:15:32.015Z,17.81
2017-10-23T19:17:11.813Z,17.44
2017-10-23T19:18:50.445Z,17.46
2017-10-23T19:20:34.613Z,17.49
2017-10-23T19:22:14.737Z,17.53
2017-10-23T19:23:55.601Z,17.48
2017-10-23T19:25:34.650Z,17.63
2017-10-23T19:27:15.212Z,17.61
2017-10-23T19:28:53.282Z,17.10
2017-10-23T19:30:32.503Z,16.81
2017-10-23T19:32:11.149Z,16.63
2017-10-23T19:33:49.596Z,16.56
2017-10-23T19:35:28.191Z,16.56
2017-10-23T19:37:06.814Z,16.64
2017-10-23T19:38:45.259Z,16.79
2017-10-23T19:40:25.216Z,16.92
2017-10-23T19:42:03.761Z,17.20
2017-10-23T19:44:32.178Z,17.44
2017-10-23T19:46:11.314Z,17.78
2017-10-23T19:47:50.247Z,17.66
2017-10-23T19:49:31.673Z,17.52
2017-10-23T19:51:10.323Z,17.54
2017-10-23T19:52:50.499Z,17.43
2017-10-23T19:54:39.281Z,17.40
2017-10-23T19:56:27.388Z,17.42
2017-10-23T19:58:09.489Z,17.42
2017-10-23T19:59:54.864Z,17.41
2017-10-23T20:01:37.189Z,17.81
2017-10-23T20:03:15.484Z,18.12
2017-10-23T20:04:53.633Z,18.07
2017-10-23T20:07:05.137Z,18.24
2017-10-23T20:08:53.997Z,18.10
2017-10-23T20:10:39.779Z,18.12
2017-10-23T20:12:20.068Z,18.08
2017-10-23T20:13:59.446Z,18.06
2017-10-23T20:15:40.478Z,18.22
2017-10-23T20:17:34.752Z,18.23
2017-10-23T20:19:22.958Z,18.19
2017-10-23T20:21:07.577Z,18.12
2017-10-23T20:22:47.609Z,18.08
2017-10-23T20:24:24.463Z,17.83
2017-10-23T20:26:01.112Z,17.82
2017-10-23T20:27:39.554Z,18.01
2017-10-23T20:29:18.604Z,18.08
2017-10-23T20:30:55.239Z,18.07
2017-10-23T20:32:32.220Z,17.96
2017-10-23T20:34:09.373Z,17.91
2017-10-23T20:35:47.680Z,17.95
2017-10-23T20:37:24.978Z,17.94
2017-10-23T20:39:01.836Z,17.73
2017-10-23T20:40:41.316Z,17.52
2017-10-23T20:42:18.402Z,17.40
2017-10-23T20:43:55.089Z,17.35
2017-10-23T20:45:33.744Z,17.24
2017-10-23T20:47:11.318Z,17.57
2017-10-23T20:48:48.266Z,17.86
2017-10-23T20:50:25.071Z,17.88
2017-10-23T20:52:02.080Z,18.03
2017-10-23T20:53:40.443Z,18.19
2017-10-23T20:55:17.373Z,18.30
2017-10-23T20:56:54.894Z,18.34
2017-10-23T20:58:31.817Z,18.29
2017-10-23T21:00:08.679Z,18.02
2017-10-23T21:01:46.166Z,17.92
2017-10-23T21:03:23.603Z,18.06
2017-10-23T21:05:00.619Z,17.90
2017-10-23T21:06:37.794Z,17.88